Time;durP1;ratioP1;P1;durP2;ratioP2;P2;SDS_P1;SDS_P2;PMS_P1;PMS_P2;Temp;Humidity;BMP_temperature;BMP_pressure;BME280_temperature;BME280_humidity;BME280_pressure;Samples;Min_cycle;Max_cycle;Signal;HPM_P1;HPM_P2
2022/11/21 00:00:07;;;;;;;5.82;5.30;;;;;;;10.33;100.00;63060.72;5004935;28;20219;-72
2022/11/21 00:02:34;;;;;;;6.38;4.72;;;;;;;10.31;100.00;63061.72;5003044;28;20262;-72
2022/11/21 00:05:01;;;;;;;5.93;5.32;;;;;;;10.24;100.00;63056.47;4986679;28;20411;-72
2022/11/21 00:07:28;;;;;;;6.63;5.28;;;;;;;10.18;100.00;63048.25;4986551;28;20203;-72
2022/11/21 00:09:54;;;;;;;8.68;5.55;;;;;;;10.13;100.00;63043.06;5002564;28;20210;-73
2022/11/21 00:12:23;;;;;;;5.10;4.60;;;;;;;10.25;100.00;63054.97;4995795;28;20551;-75
2022/11/21 00:14:50;;;;;;;4.05;3.75;;;;;;;10.30;100.00;63057.63;4991505;28;20288;-72
2022/11/21 00:17:17;;;;;;;4.35;4.03;;;;;;;10.37;100.00;63065.34;5003135;28;20213;-72
2022/11/21 00:19:44;;;;;;;7.53;4.53;;;;;;;10.46;100.00;63077.22;5005197;28;20249;-73
2022/11/21 00:22:11;;;;;;;4.10;3.75;;;;;;;10.39;100.00;63069.97;5006413;28;20200;-72
2022/11/21 00:24:38;;;;;;;2.63;2.47;;;;;;;10.58;100.00;63088.63;5005591;28;20208;-74
2022/11/21 00:27:05;;;;;;;2.92;2.30;;;;;;;10.59;100.00;63092.19;5001970;28;20234;-73
2022/11/21 00:29:33;;;;;;;2.40;2.08;;;;;;;10.66;100.00;63097.41;5005706;28;20526;-73
2022/11/21 00:32:00;;;;;;;3.15;2.80;;;;;;;10.62;100.00;63095.28;5006024;28;20219;-73
2022/11/21 00:34:27;;;;;;;1.85;1.75;;;;;;;10.49;100.00;63080.31;5004873;28;20490;-73
2022/11/21 00:36:53;;;;;;;6.75;1.60;;;;;;;10.32;100.00;63062.72;5001519;28;20247;-72
2022/11/21 00:39:21;;;;;;;3.92;1.55;;;;;;;10.51;100.00;63084.41;5005759;28;20206;-73
2022/11/21 00:41:47;;;;;;;4.60;1.65;;;;;;;10.64;100.00;63095.34;5004472;28;20278;-73
2022/11/21 00:44:14;;;;;;;2.15;0.80;;;;;;;10.87;100.00;63116.09;5003554;28;20250;-74
2022/11/21 00:46:42;;;;;;;2.53;0.85;;;;;;;11.01;100.00;63133.13;4986149;28;20525;-73
2022/11/21 00:49:09;;;;;;;3.30;0.68;;;;;;;11.08;100.00;63140.38;4985566;28;20440;-73
2022/11/21 00:51:36;;;;;;;1.17;0.60;;;;;;;11.20;100.00;63150.75;5005449;28;20619;-73
2022/11/21 00:54:03;;;;;;;0.93;0.28;;;;;;;11.32;100.00;63170.34;5002827;28;20250;-72
2022/11/21 00:56:29;;;;;;;0.80;0.40;;;;;;;11.36;100.00;63169.88;5004366;28;20227;-73
2022/11/21 00:58:56;;;;;;;2.50;0.55;;;;;;;11.36;100.00;63169.38;5004657;28;20254;-73
2022/11/21 01:01:25;;;;;;;0.28;0.28;;;;;;;11.33;100.00;63166.25;5005545;28;20211;-74
2022/11/21 01:03:53;;;;;;;0.60;0.40;;;;;;;11.18;100.00;63151.25;4986520;28;20322;-73
2022/11/21 01:06:20;;;;;;;3.20;0.30;;;;;;;11.16;100.00;63148.66;5005318;28;20566;-74
2022/11/21 01:08:47;;;;;;;1.73;0.60;;;;;;;11.29;100.00;63160.09;5004024;28;20203;-73
2022/11/21 01:11:16;;;;;;;4.03;0.93;;;;;;;11.24;100.00;63156.94;5003302;28;20231;-73
2022/11/21 01:13:43;;;;;;;0.90;0.65;;;;;;;11.30;100.00;63163.16;5004407;28;20201;-73
2022/11/21 01:16:12;;;;;;;1.88;1.00;;;;;;;11.41;100.00;63177.09;5003558;28;20234;-73
2022/11/21 01:18:39;;;;;;;1.95;1.42;;;;;;;11.69;100.00;63203.56;5004698;28;20207;-73
2022/11/21 01:21:12;;;;;;;1.15;1.02;;;;;;;11.69;100.00;63200.50;4992740;28;20227;-75
2022/11/21 01:23:39;;;;;;;3.05;1.27;;;;;;;11.62;100.00;63198.84;4991818;28;20208;-73
2022/11/21 01:26:08;;;;;;;3.47;1.38;;;;;;;11.46;100.00;63184.81;5003788;28;20270;-72
2022/11/21 01:28:35;;;;;;;1.48;1.38;;;;;;;11.37;100.00;63170.91;5004577;28;20231;-71
2022/11/21 01:31:06;;;;;;;5.13;2.40;;;;;;;11.20;100.00;63148.22;5003161;28;20219;-72
2022/11/21 01:33:33;;;;;;;4.38;2.13;;;;;;;11.22;100.00;63157.94;5004525;28;20199;-73
2022/11/21 01:36:09;;;;;;;2.78;1.77;;;;;;;11.28;100.00;63161.09;5003122;28;20242;-73
2022/11/21 01:38:36;;;;;;;3.28;2.00;;;;;;;11.12;100.00;63145.03;5000294;28;20200;-73
2022/11/21 01:41:03;;;;;;;1.80;1.60;;;;;;;11.08;100.00;63140.88;4985085;28;20227;-73
2022/11/21 01:43:30;;;;;;;2.08;1.90;;;;;;;11.10;100.00;63144.97;4985696;28;20207;-76
2022/11/21 01:45:58;;;;;;;1.40;1.30;;;;;;;10.81;100.00;63112.41;5004671;28;20290;-72
2022/11/21 01:48:30;;;;;;;3.20;1.33;;;;;;;10.82;100.00;63113.47;5002237;28;20531;-72
2022/11/21 01:51:01;;;;;;;3.60;1.40;;;;;;;10.69;100.00;63102.53;5002077;28;20227;-73
2022/11/21 01:53:29;;;;;;;1.33;1.23;;;;;;;10.58;100.00;63089.13;5003543;28;20270;-73
2022/11/21 01:55:56;;;;;;;1.45;1.20;;;;;;;10.56;100.00;63086.53;5002825;28;20527;-73
2022/11/21 01:58:24;;;;;;;1.02;1.00;;;;;;;10.68;100.00;63099.50;5003620;28;20209;-72
2022/11/21 02:00:50;;;;;;;0.70;0.70;;;;;;;10.68;100.00;63102.03;5003913;28;20219;-72
2022/11/21 02:03:23;;;;;;;2.10;1.27;;;;;;;10.72;100.00;63103.63;4999102;28;20203;-73
2022/11/21 02:05:54;;;;;;;0.90;0.90;;;;;;;10.72;100.00;63103.09;4987826;28;20263;-74
2022/11/21 02:08:25;;;;;;;1.55;0.80;;;;;;;10.54;100.00;63081.94;5000105;28;20199;-73
2022/11/21 02:11:04;;;;;;;4.68;1.00;;;;;;;10.63;100.00;63094.28;5001573;28;20402;-72
2022/11/21 02:13:31;;;;;;;1.25;0.75;;;;;;;10.63;100.00;63094.28;5001624;28;20199;-74
2022/11/21 02:15:58;;;;;;;1.75;0.82;;;;;;;10.54;100.00;63087.53;5003144;28;20281;-74
2022/11/21 02:18:24;;;;;;;1.77;1.05;;;;;;;10.46;100.00;63079.78;5003794;28;20203;-74
2022/11/21 02:21:00;;;;;;;4.07;0.80;;;;;;;10.54;100.00;63082.44;5001713;28;20270;-73
2022/11/21 02:23:36;;;;;;;3.80;0.60;;;;;;;10.50;100.00;63080.84;5001190;28;20195;-73
2022/11/21 02:26:04;;;;;;;0.80;0.80;;;;;;;10.51;100.00;63083.91;5003509;28;20228;-74
2022/11/21 02:28:31;;;;;;;2.67;0.90;;;;;;;10.59;100.00;63092.19;5003428;28;20226;-74
2022/11/21 02:30:58;;;;;;;0.88;0.80;;;;;;;10.35;100.00;63062.78;5003488;28;20231;-74
2022/11/21 02:33:25;;;;;;;2.63;0.85;;;;;;;10.38;100.00;63066.41;4998841;28;20203;-74
2022/11/21 02:35:59;;;;;;;7.07;1.35;;;;;;;10.42;100.00;63075.13;5003681;28;20242;-73
2022/11/21 02:38:30;;;;;;;0.75;0.45;;;;;;;10.36;100.00;63071.97;5002494;28;20483;-73
2022/11/21 02:41:05;;;;;;;1.63;0.70;;;;;;;10.31;100.00;63064.25;4996479;28;20274;-73
2022/11/21 02:43:38;;;;;;;3.08;1.00;;;;;;;10.61;100.00;63092.25;4990868;28;20483;-73
2022/11/21 02:46:05;;;;;;;4.18;1.17;;;;;;;10.60;100.00;63096.28;5004100;28;20238;-73
2022/11/21 02:48:31;;;;;;;2.80;1.20;;;;;;;10.59;100.00;63090.16;5002875;28;20207;-73
2022/11/21 02:50:58;;;;;;;1.13;1.02;;;;;;;10.64;100.00;63094.81;5002273;28;20227;-73
2022/11/21 02:53:25;;;;;;;2.00;1.00;;;;;;;10.57;100.00;63090.13;5003115;28;20199;-73
2022/11/21 02:55:52;;;;;;;2.05;0.98;;;;;;;10.36;100.00;63068.91;5002648;28;20424;-73
2022/11/21 02:58:19;;;;;;;3.70;1.33;;;;;;;10.53;100.00;63086.00;5002232;28;20206;-73
2022/11/21 03:00:48;;;;;;;2.00;1.10;;;;;;;10.53;100.00;63083.94;4984238;28;20230;-74
2022/11/21 03:03:15;;;;;;;0.90;0.90;;;;;;;10.53;100.00;63081.41;4984199;28;20258;-74
2022/11/21 03:05:41;;;;;;;4.28;1.10;;;;;;;10.42;100.00;63073.06;4994373;28;20226;-74
2022/11/21 03:08:09;;;;;;;2.40;1.50;;;;;;;10.37;100.00;63069.94;5001668;28;20199;-73
2022/11/21 03:10:35;;;;;;;1.10;0.93;;;;;;;10.02;100.00;63031.16;5003169;28;20581;-73
2022/11/21 03:13:02;;;;;;;3.83;1.30;;;;;;;10.35;100.00;63068.38;5003557;28;20203;-76
2022/11/21 03:15:31;;;;;;;2.15;1.20;;;;;;;10.37;100.00;63067.91;5001856;28;20479;-73
2022/11/21 03:18:01;;;;;;;2.13;1.20;;;;;;;10.35;100.00;63065.84;5001878;28;20250;-73
2022/11/21 03:20:28;;;;;;;1.88;1.05;;;;;;;10.40;100.00;63076.13;5002926;28;20223;-74
2022/11/21 03:22:55;;;;;;;1.75;1.35;;;;;;;10.43;100.00;63073.59;5001877;28;20238;-72
2022/11/21 03:25:22;;;;;;;1.20;1.10;;;;;;;10.40;100.00;63070.50;5002356;28;20338;-73
2022/11/21 03:27:51;;;;;;;2.60;1.48;;;;;;;10.51;100.00;63081.38;5002383;28;20200;-75
2022/11/21 03:30:18;;;;;;;1.75;1.00;;;;;;;10.39;100.00;63069.44;5003221;28;20384;-73
2022/11/21 03:32:45;;;;;;;3.40;1.42;;;;;;;10.29;100.00;63061.66;5002704;28;20435;-74
2022/11/21 03:35:13;;;;;;;1.42;1.25;;;;;;;10.33;100.00;63065.81;4996350;28;20587;-72
2022/11/21 03:37:40;;;;;;;3.40;0.93;;;;;;;10.39;100.00;63072.00;4984203;28;20211;-73
2022/11/21 03:40:08;;;;;;;2.35;1.35;;;;;;;10.37;100.00;63067.41;4983395;28;20226;-74
2022/11/21 03:42:35;;;;;;;1.30;0.88;;;;;;;10.63;100.00;63091.25;4996236;28;20241;-73
2022/11/21 03:45:02;;;;;;;2.25;0.88;;;;;;;11.03;100.00;63137.72;4989974;28;20208;-73
2022/11/21 03:47:29;;;;;;;1.40;1.13;;;;;;;10.93;100.00;63122.28;4983577;28;20206;-74
2022/11/21 03:49:56;;;;;;;1.70;1.10;;;;;;;10.90;100.00;63124.28;4983538;28;20235;-73
2022/11/21 03:52:24;;;;;;;1.55;0.80;;;;;;;10.94;100.00;63123.34;5002628;28;20229;-74
2022/11/21 03:54:51;;;;;;;2.03;0.80;;;;;;;11.29;100.00;63162.13;5002615;28;20267;-73
2022/11/21 03:57:18;;;;;;;2.88;1.40;;;;;;;11.38;100.00;63174.00;5006539;28;20199;-74
2022/11/21 03:59:45;;;;;;;1.85;1.10;;;;;;;11.50;100.00;63184.38;5005126;28;20199;-75
2022/11/21 04:02:11;;;;;;;3.65;1.17;;;;;;;11.48;100.00;63182.31;5002117;28;20215;-74
2022/11/21 04:04:38;;;;;;;1.98;0.93;;;;;;;11.68;100.00;63202.03;5006304;28;20213;-74
2022/11/21 04:07:05;;;;;;;2.25;0.90;;;;;;;11.58;100.00;63189.59;5006470;28;20219;-73
2022/11/21 04:09:33;;;;;;;2.47;1.00;;;;;;;11.41;100.00;63175.06;5005908;28;20249;-74
2022/11/21 04:12:00;;;;;;;1.85;1.00;;;;;;;11.41;100.00;63180.16;4999693;28;20355;-74
2022/11/21 04:14:27;;;;;;;1.65;1.00;;;;;;;11.44;100.00;63180.72;5006219;28;20258;-74
2022/11/21 04:16:54;;;;;;;0.55;0.55;;;;;;;11.74;100.00;63211.31;5005998;28;20235;-74
2022/11/21 04:19:21;;;;;;;2.17;1.05;;;;;;;11.74;100.00;63210.78;5005172;28;20207;-73
2022/11/21 04:21:48;;;;;;;1.27;0.73;;;;;;;11.81;100.00;63215.47;4990014;28;20227;-75
2022/11/21 04:24:14;;;;;;;2.63;0.88;;;;;;;12.12;100.00;63250.16;5006392;28;20199;-74
2022/11/21 04:26:42;;;;;;;1.73;1.05;;;;;;;12.21;100.00;63262.03;5003628;28;20374;-74
2022/11/21 04:29:09;;;;;;;5.78;1.20;;;;;;;12.29;100.00;63262.66;5001660;28;20204;-75
2022/11/21 04:31:36;;;;;;;5.00;1.25;;;;;;;12.33;100.00;63272.47;4986341;28;20219;-72
2022/11/21 04:34:03;;;;;;;1.52;0.90;;;;;;;12.39;100.00;63281.22;4999596;28;20206;-74
2022/11/21 04:36:30;;;;;;;0.90;0.68;;;;;;;12.40;100.00;63277.16;5005314;28;20243;-74
2022/11/21 04:38:57;;;;;;;2.40;0.73;;;;;;;12.51;100.00;63291.09;5004827;28;20203;-75
2022/11/21 04:41:24;;;;;;;1.48;0.90;;;;;;;12.49;99.65;63288.53;5003709;28;20223;-74
2022/11/21 04:43:52;;;;;;;0.80;0.80;;;;;;;12.61;100.00;63301.47;5006075;28;20199;-73
2022/11/21 04:46:19;;;;;;;4.75;0.80;;;;;;;12.43;100.00;63277.19;5004952;28;20226;-73
2022/11/21 04:48:46;;;;;;;3.35;1.30;;;;;;;12.49;100.00;63283.91;5004040;28;20210;-74
2022/11/21 04:51:12;;;;;;;5.05;1.35;;;;;;;12.23;100.00;63262.09;5004362;28;20472;-72
2022/11/21 04:53:39;;;;;;;2.03;1.85;;;;;;;12.12;100.00;63245.56;5006629;28;20246;-74
2022/11/21 04:56:07;;;;;;;1.60;1.50;;;;;;;12.05;100.00;63240.88;5002717;28;20585;-75
2022/11/21 04:58:33;;;;;;;1.60;1.10;;;;;;;12.01;100.00;63236.22;5002123;28;20238;-75
2022/11/21 05:01:07;;;;;;;4.30;1.67;;;;;;;11.85;100.00;63220.16;5004013;28;20431;-74
2022/11/21 05:03:34;;;;;;;1.80;1.70;;;;;;;11.63;100.00;63202.94;5005408;28;20203;-74
2022/11/21 05:06:01;;;;;;;7.60;1.80;;;;;;;11.73;100.00;63202.63;4996059;28;20227;-73
2022/11/21 05:08:27;;;;;;;2.90;1.73;;;;;;;11.78;100.00;63215.44;5004632;28;20199;-74
2022/11/21 05:13:39;;;;;;;4.43;2.05;;;;;;;11.46;100.00;63182.28;4998303;28;20372;-73
2022/11/21 05:16:07;;;;;;;5.60;2.50;;;;;;;11.36;100.00;63169.38;4993457;28;20452;-74
2022/11/21 05:18:34;;;;;;;3.25;2.88;;;;;;;10.64;100.00;63094.81;5004016;28;20254;-74
2022/11/21 05:21:01;;;;;;;4.65;2.47;;;;;;;10.77;100.00;63103.19;5004299;28;20448;-74
2022/11/21 05:23:28;;;;;;;2.28;2.13;;;;;;;10.82;100.00;63113.47;5000322;28;20227;-74
2022/11/21 05:25:55;;;;;;;3.47;2.15;;;;;;;10.73;100.00;63104.66;5003548;28;20258;-74
2022/11/21 05:28:22;;;;;;;3.13;2.92;;;;;;;10.66;100.00;63099.44;5003530;28;20200;-74
2022/11/21 05:30:49;;;;;;;2.33;2.20;;;;;;;10.60;100.00;63090.66;5004141;28;20215;-74
2022/11/21 05:33:19;;;;;;;12.85;2.95;;;;;;;10.55;100.00;63083.47;4996359;28;20546;-75
2022/11/21 05:35:46;;;;;;;2.20;2.10;;;;;;;10.62;100.00;63093.28;5000144;28;20266;-75
2022/11/21 05:38:13;;;;;;;4.90;2.00;;;;;;;10.44;100.00;63075.16;4995506;28;20512;-74
2022/11/21 05:40:39;;;;;;;4.05;1.58;;;;;;;10.47;100.00;63077.75;4984681;28;20267;-74
2022/11/21 05:45:51;;;;;;;3.80;2.17;;;;;;;10.57;100.00;63090.13;5000613;28;20221;-75
2022/11/21 05:48:19;;;;;;;1.60;1.50;;;;;;;10.74;100.00;63103.13;5004740;28;20393;-73
2022/11/21 05:50:48;;;;;;;3.17;1.48;;;;;;;10.82;100.00;63111.41;5000710;28;20547;-75
2022/11/21 05:53:15;;;;;;;2.60;2.10;;;;;;;10.80;100.00;63111.38;5003730;28;20227;-74
2022/11/21 05:55:42;;;;;;;4.28;1.65;;;;;;;10.82;100.00;63111.41;5003132;28;20355;-75
2022/11/21 05:58:09;;;;;;;1.30;1.20;;;;;;;10.75;100.00;63106.72;5003417;28;20203;-75
2022/11/21 06:00:37;;;;;;;3.15;1.33;;;;;;;11.05;100.00;63135.22;4996601;28;20235;-74
2022/11/21 06:05:50;;;;;;;2.58;1.52;;;;;;;11.07;100.00;63142.41;5001488;28;20265;-74
2022/11/21 06:08:18;;;;;;;2.10;1.60;;;;;;;10.98;100.00;63132.56;5002805;28;20196;-74
2022/11/21 06:10:45;;;;;;;1.50;1.40;;;;;;;11.00;100.00;63134.63;5002336;28;20235;-74
2022/11/21 06:13:21;;;;;;;1.98;1.88;;;;;;;10.94;100.00;63126.38;5004460;28;20204;-76
2022/11/21 06:15:53;;;;;;;4.00;1.35;;;;;;;10.63;100.00;63091.75;5003694;28;20459;-75
2022/11/21 06:18:20;;;;;;;2.42;1.15;;;;;;;10.32;100.00;63062.72;5003286;28;20195;-75
2022/11/21 06:20:47;;;;;;;2.35;1.13;;;;;;;10.37;100.00;63070.44;4991927;28;20211;-74
2022/11/21 06:23:15;;;;;;;1.42;1.15;;;;;;;10.34;100.00;63062.25;5004501;28;20425;-74
2022/11/21 06:25:43;;;;;;;1.13;1.13;;;;;;;10.00;100.00;63026.53;4995701;28;20310;-74
2022/11/21 06:28:10;;;;;;;2.60;1.38;;;;;;;9.53;100.00;62983.53;5002126;28;20392;-74
2022/11/21 06:30:38;;;;;;;3.47;1.27;;;;;;;9.52;100.00;62982.50;5001905;28;20229;-74
2022/11/21 06:33:06;;;;;;;2.03;1.25;;;;;;;9.61;100.00;62991.81;4999351;28;20199;-73
2022/11/21 06:35:33;;;;;;;2.95;1.35;;;;;;;9.32;100.00;62959.28;5002255;28;20223;-74
2022/11/21 06:37:59;;;;;;;1.50;1.27;;;;;;;9.28;100.00;62955.66;5002333;28;20222;-74
2022/11/21 06:40:27;;;;;;;2.72;1.13;;;;;;;9.00;100.00;62926.22;5001884;28;20223;-76
2022/11/21 06:42:54;;;;;;;2.08;1.10;;;;;;;8.85;100.00;62908.16;4999860;28;20520;-75
2022/11/21 06:45:21;;;;;;;1.10;1.10;;;;;;;8.68;100.00;62893.16;5002008;28;20337;-75
2022/11/21 06:47:48;;;;;;;2.85;1.20;;;;;;;8.61;100.00;62883.38;5001579;28;20195;-74
2022/11/21 06:50:15;;;;;;;1.60;1.25;;;;;;;8.27;100.00;62855.84;5001384;28;20375;-75
2022/11/21 06:52:42;;;;;;;1.40;1.30;;;;;;;8.08;100.00;62834.72;4983934;28;20246;-74
2022/11/21 06:55:09;;;;;;;1.30;1.20;;;;;;;7.94;100.00;62817.19;5002371;28;20401;-75
2022/11/21 06:57:38;;;;;;;2.22;1.30;;;;;;;7.87;100.00;62805.41;5001106;28;20252;-75
2022/11/21 07:00:06;;;;;;;2.72;1.55;;;;;;;7.62;100.00;62784.16;4986023;28;20220;-75
2022/11/21 07:02:33;;;;;;;2.33;1.92;;;;;;;7.28;100.00;62746.53;4995500;28;20279;-75
2022/11/21 07:05:00;;;;;;;4.50;1.65;;;;;;;7.04;100.00;62722.81;5001948;28;20207;-74
2022/11/21 07:07:27;;;;;;;1.75;1.65;;;;;;;6.28;100.00;62644.41;4997825;28;20249;-76
2022/11/21 07:09:54;;;;;;;1.92;1.58;;;;;;;6.30;100.00;62648.50;5002327;28;20278;-75
2022/11/21 07:15:07;;;;;;;1.05;0.90;;;;;;;6.30;100.00;62648.50;5002644;28;20265;-75
2022/11/21 07:17:34;;;;;;;1.17;0.77;;;;;;;6.11;100.00;62631.94;5003038;28;20230;-75
2022/11/21 07:20:01;;;;;;;1.30;1.20;;;;;;;6.02;100.00;62614.59;5001952;28;21558;-75
2022/11/21 07:22:28;;;;;;;1.30;1.20;;;;;;;6.11;100.00;62631.94;4995446;28;20200;-74
2022/11/21 07:24:57;;;;;;;1.52;1.27;;;;;;;6.08;100.00;62625.81;5003575;28;20195;-75
2022/11/21 07:27:27;;;;;;;2.42;1.80;;;;;;;5.94;100.00;62611.41;5003734;28;20202;-74
2022/11/21 07:29:56;;;;;;;2.20;1.58;;;;;;;5.91;100.00;62611.34;5003605;28;20210;-75
2022/11/21 07:32:27;;;;;;;2.22;2.03;;;;;;;6.04;100.00;62621.72;5007830;28;20234;-75
2022/11/21 07:34:54;;;;;;;1.77;1.67;;;;;;;5.95;100.00;62610.41;5005755;28;20207;-74
2022/11/21 07:37:20;;;;;;;3.15;1.50;;;;;;;5.67;100.00;62581.53;5007716;28;20235;-74
2022/11/21 07:39:47;;;;;;;1.13;1.13;;;;;;;5.78;100.00;62590.34;5007411;28;20223;-74
2022/11/21 07:42:14;;;;;;;0.65;0.65;;;;;;;5.80;100.00;62600.50;5007295;28;20203;-74
2022/11/21 07:44:41;;;;;;;1.20;1.02;;;;;;;5.83;100.00;62600.59;5000967;28;20463;-74
2022/11/21 07:47:08;;;;;;;1.27;1.27;;;;;;;5.62;100.00;62576.91;5006479;28;20223;-74
2022/11/21 07:49:36;;;;;;;2.42;2.15;;;;;;;5.40;100.00;62553.72;5006679;28;20246;-73
2022/11/21 07:52:03;;;;;;;1.17;1.17;;;;;;;5.19;100.00;62535.13;5006699;28;20219;-75
2022/11/21 07:54:30;;;;;;;1.45;1.35;;;;;;;4.95;100.00;62510.44;4988417;28;20250;-73
2022/11/21 07:56:57;;;;;;;1.30;1.30;;;;;;;4.82;100.00;62499.56;5004338;28;20275;-71
2022/11/21 07:59:24;;;;;;;2.08;1.67;;;;;;;5.01;100.00;62516.59;5006724;28;20206;-72
2022/11/21 08:01:51;;;;;;;2.20;2.00;;;;;;;4.94;100.00;62511.91;5004419;28;20532;-72
2022/11/21 08:04:18;;;;;;;1.73;1.63;;;;;;;4.95;100.00;62512.94;5006083;28;20203;-72
2022/11/21 08:06:46;;;;;;;1.73;1.13;;;;;;;4.93;100.00;62515.41;5005399;28;20234;-71
2022/11/21 08:09:13;;;;;;;1.65;1.58;;;;;;;4.66;100.00;62486.13;5006141;28;20214;-71
2022/11/21 08:11:40;;;;;;;2.88;1.65;;;;;;;4.58;100.00;62472.31;5003067;28;20227;-72
2022/11/21 08:14:07;;;;;;;1.33;1.33;;;;;;;4.58;100.00;62472.31;5005269;28;20199;-72
2022/11/21 08:16:34;;;;;;;1.27;1.23;;;;;;;4.50;100.00;62469.13;4985829;28;20294;-72
2022/11/21 08:19:01;;;;;;;1.08;1.00;;;;;;;4.41;100.00;62454.81;4985263;28;20431;-73
2022/11/21 08:21:28;;;;;;;2.47;2.20;;;;;;;4.39;100.00;62452.75;5001574;28;20247;-73
2022/11/21 08:23:56;;;;;;;2.22;2.05;;;;;;;4.63;100.00;62480.50;5006466;28;20204;-73
2022/11/21 08:26:23;;;;;;;5.07;2.33;;;;;;;4.41;100.00;62454.81;5006270;28;20219;-73
2022/11/21 08:28:50;;;;;;;3.42;3.10;;;;;;;4.65;100.00;62480.06;5001986;28;20196;-72
2022/11/21 08:31:16;;;;;;;3.35;3.15;;;;;;;4.81;100.00;62496.00;4987005;28;20246;-72
2022/11/21 08:33:43;;;;;;;3.67;3.47;;;;;;;5.05;100.00;62523.25;4986521;28;20482;-72
2022/11/21 08:36:10;;;;;;;2.70;2.60;;;;;;;5.13;100.00;62528.44;4986708;28;20514;-72
2022/11/21 08:38:37;;;;;;;3.15;2.95;;;;;;;5.16;100.00;62534.56;4993644;28;20270;-73
2022/11/21 08:43:50;;;;;;;2.30;2.20;;;;;;;5.17;100.00;62530.56;4995716;28;20388;-72
2022/11/21 08:46:17;;;;;;;2.78;2.55;;;;;;;5.25;100.00;62541.31;5006479;28;20255;-72
2022/11/21 08:48:44;;;;;;;2.50;2.40;;;;;;;5.17;100.00;62533.06;5006245;28;20199;-72
2022/11/21 08:51:11;;;;;;;1.77;1.67;;;;;;;5.04;100.00;62521.69;5006020;28;20242;-74
2022/11/21 08:53:37;;;;;;;7.65;2.53;;;;;;;5.20;100.00;62535.63;5003672;28;20203;-71
2022/11/21 08:56:06;;;;;;;2.67;2.58;;;;;;;5.40;100.00;62559.28;5005652;28;20254;-72
2022/11/21 08:58:32;;;;;;;4.00;2.72;;;;;;;5.52;100.00;62568.63;5005827;28;20224;-71
2022/11/21 09:01:02;;;;;;;2.42;2.28;;;;;;;5.30;100.00;62546.47;5003706;28;20223;-73
2022/11/21 09:03:28;;;;;;;2.70;2.60;;;;;;;5.46;100.00;62560.41;5005494;28;20191;-73
2022/11/21 09:05:56;;;;;;;2.78;2.65;;;;;;;5.55;100.00;62572.22;5005148;28;20219;-72
2022/11/21 09:08:23;;;;;;;3.03;2.90;;;;;;;5.64;100.00;62581.47;5003731;28;20219;-73
2022/11/21 09:10:50;;;;;;;5.13;2.60;;;;;;;5.39;100.00;62555.72;5005536;28;20650;-73
2022/11/21 09:13:19;;;;;;;2.60;2.50;;;;;;;5.30;100.00;62543.41;4998140;28;20223;-72
2022/11/21 09:18:30;;;;;;;2.30;2.20;;;;;;;5.43;100.00;62556.81;5003801;28;20617;-72
2022/11/21 09:20:57;;;;;;;2.25;2.15;;;;;;;5.36;100.00;62555.16;5005245;28;20219;-72
2022/11/21 09:23:23;;;;;;;2.58;2.47;;;;;;;5.33;100.00;62547.03;4995897;28;20203;-72
2022/11/21 09:25:50;;;;;;;2.45;2.35;;;;;;;5.37;100.00;62553.66;4992538;28;20219;-72
2022/11/21 09:28:18;;;;;;;2.67;2.58;;;;;;;5.46;100.00;62560.41;5005293;28;20203;-72
2022/11/21 09:30:45;;;;;;;2.60;2.50;;;;;;;5.50;100.00;62564.56;4994419;28;20532;-72
2022/11/21 09:33:13;;;;;;;3.22;3.03;;;;;;;5.57;100.00;62574.28;4991586;28;20480;-73
2022/11/21 09:35:40;;;;;;;4.88;3.42;;;;;;;5.67;100.00;62584.06;4997258;28;20226;-72
2022/11/21 09:38:07;;;;;;;3.65;3.45;;;;;;;5.80;100.00;62597.97;5003336;28;20231;-72
2022/11/21 09:40:35;;;;;;;6.88;3.83;;;;;;;5.89;100.00;62606.75;4985420;28;20232;-73
2022/11/21 09:43:43;;;;;;;3.25;3.05;;;;;;;5.92;100.00;62609.34;4985692;28;20428;-75
2022/11/21 09:46:12;;;;;;;3.40;3.20;;;;;;;5.88;100.00;62601.19;4994828;28;20404;-72
2022/11/21 09:48:47;;;;;;;3.55;3.25;;;;;;;5.97;100.00;62617.00;5003713;28;20199;-73
2022/11/21 09:51:16;;;;;;;2.83;2.67;;;;;;;5.75;100.00;62592.31;5004333;28;20259;-72
2022/11/21 09:53:57;;;;;;;5.72;3.00;;;;;;;5.87;100.00;62604.69;4989944;28;20207;-72
2022/11/21 09:56:25;;;;;;;3.83;3.47;;;;;;;5.95;100.00;62615.47;4998061;28;20584;-72
2022/11/21 09:59:10;;;;;;;3.30;3.10;;;;;;;5.89;100.00;62606.75;4996338;28;20204;-71
2022/11/21 10:01:37;;;;;;;3.40;3.20;;;;;;;5.69;100.00;62581.06;4991949;28;20219;-73
2022/11/21 10:04:05;;;;;;;4.32;3.97;;;;;;;5.68;100.00;62585.59;4989894;28;20200;-72
2022/11/21 10:06:36;;;;;;;3.80;3.47;;;;;;;5.68;100.00;62590.13;4986356;28;20223;-72
2022/11/21 10:09:14;;;;;;;4.40;4.07;;;;;;;5.57;100.00;62573.78;4990007;28;20266;-72
2022/11/21 10:14:48;;;;;;;3.15;2.95;;;;;;;5.35;100.00;62546.56;4999776;28;20215;-72
2022/11/21 10:17:22;;;;;;;3.78;3.42;;;;;;;5.13;100.00;62530.97;4984455;28;20232;-73
2022/11/21 10:20:18;;;;;;;4.40;4.10;;;;;;;4.79;100.00;62496.47;4990783;28;20202;-72
2022/11/21 10:23:09;;;;;;;3.22;3.03;;;;;;;4.83;100.00;62492.50;5001527;28;20191;-73
2022/11/21 10:25:40;;;;;;;3.28;3.05;;;;;;;4.56;100.00;62468.25;4988124;28;20404;-71
2022/11/21 10:28:16;;;;;;;5.20;4.72;;;;;;;4.42;100.00;62455.84;4989869;28;20197;-74
2022/11/21 10:30:46;;;;;;;5.15;4.28;;;;;;;4.43;100.00;62454.88;4983716;28;20215;-71
2022/11/21 10:33:19;;;;;;;8.57;6.35;;;;;;;4.62;100.00;62476.44;4994756;28;20199;-73
2022/11/21 10:35:51;;;;;;;6.07;5.57;;;;;;;4.77;100.00;62486.84;4988306;28;20220;-73
2022/11/21 10:38:22;;;;;;;6.47;5.97;;;;;;;4.77;100.00;62498.94;4987248;28;20219;-73
2022/11/21 10:40:52;;;;;;;5.82;5.32;;;;;;;4.78;100.00;62492.41;4983754;28;20591;-72
2022/11/21 10:46:18;;;;;;;5.30;4.90;;;;;;;4.92;100.00;62501.78;4998313;28;20250;-72
2022/11/21 10:48:57;;;;;;;5.03;4.65;;;;;;;4.99;100.00;62514.03;5003509;28;20200;-71
2022/11/21 10:51:37;;;;;;;5.70;5.28;;;;;;;5.05;100.00;62522.72;5004374;28;20438;-71
2022/11/21 10:56:53;;;;;;;5.05;4.65;;;;;;;4.98;100.00;62515.50;5002209;28;20277;-72
2022/11/21 10:59:24;;;;;;;5.38;4.05;;;;;;;5.03;100.00;62521.19;5003722;28;20203;-72
2022/11/21 11:02:00;;;;;;;4.60;4.20;;;;;;;5.26;100.00;62541.84;5002434;28;20226;-72
2022/11/21 11:04:28;;;;;;;4.65;4.35;;;;;;;5.32;100.00;62548.00;5008489;28;20194;-71
2022/11/21 11:06:56;;;;;;;4.22;3.90;;;;;;;5.37;100.00;62553.16;5010347;28;20227;-72
2022/11/21 11:09:24;;;;;;;5.15;4.68;;;;;;;5.43;100.00;62557.34;5009615;28;20262;-73
2022/11/21 11:11:51;;;;;;;5.35;4.95;;;;;;;5.24;100.00;62542.28;5007711;28;20264;-75
2022/11/21 11:14:30;;;;;;;5.28;4.78;;;;;;;5.20;100.00;62531.13;5009274;28;20369;-72
2022/11/21 11:16:59;;;;;;;4.80;4.40;;;;;;;5.19;100.00;62534.63;5010371;28;20234;-73
2022/11/21 11:19:28;;;;;;;4.60;4.30;;;;;;;5.11;100.00;62529.41;5007363;28;20200;-72
2022/11/21 11:21:56;;;;;;;4.25;3.95;;;;;;;4.91;100.00;62506.31;5010330;28;20219;-73
2022/11/21 11:24:28;;;;;;;5.20;4.80;;;;;;;4.93;100.00;62503.31;5010367;28;20387;-72
2022/11/21 11:27:02;;;;;;;5.28;4.63;;;;;;;5.24;100.00;62537.25;5009954;28;20218;-75
2022/11/21 11:29:33;;;;;;;4.47;4.07;;;;;;;5.29;100.00;62542.38;4997238;28;20199;-72
2022/11/21 11:32:03;;;;;;;4.72;4.32;;;;;;;5.46;100.00;62562.94;4990595;28;20418;-73
2022/11/21 11:34:39;;;;;;;4.70;4.30;;;;;;;5.37;100.00;62551.16;4990312;28;20188;-73
2022/11/21 11:37:13;;;;;;;6.75;6.15;;;;;;;5.42;100.00;62555.78;4990693;28;20524;-73
2022/11/21 11:39:47;;;;;;;5.88;5.30;;;;;;;5.43;100.00;62557.34;4990225;28;20188;-72
2022/11/21 11:48:20;;;;;;;4.85;4.35;;;;;;;5.30;100.00;62554.03;5007426;28;20223;-71
2022/11/21 11:50:50;;;;;;;5.70;5.20;;;;;;;5.24;100.00;62537.75;5010115;28;20227;-73
2022/11/21 11:53:20;;;;;;;5.57;5.03;;;;;;;5.35;100.00;62549.09;5010165;28;20199;-72
2022/11/21 11:55:53;;;;;;;5.90;5.35;;;;;;;5.45;100.00;62561.91;5003888;28;20220;-72
2022/11/21 11:58:27;;;;;;;6.15;5.65;;;;;;;5.41;100.00;62552.22;4990282;28;20228;-72
2022/11/21 12:01:00;;;;;;;6.63;6.07;;;;;;;5.34;100.00;62545.00;4990436;28;20246;-72
2022/11/21 12:03:37;;;;;;;7.28;6.57;;;;;;;5.44;100.00;62560.38;5007674;28;20207;-71
2022/11/21 12:06:09;;;;;;;7.82;7.05;;;;;;;5.49;100.00;62563.00;5009054;28;20500;-72